sensor_id;sensor_type;location;lat;lon;timestamp;temperature;humidity
1996;DHT22;38556;47.068;15.408;2023-04-15T00:01:58;8.20;99.90
1996;DHT22;38556;47.068;15.408;2023-04-15T00:04:26;8.20;99.90
1996;DHT22;38556;47.068;15.408;2023-04-15T00:06:53;8.10;99.90
1996;DHT22;38556;47.068;15.408;2023-04-15T00:09:21;8.20;99.90
1996;DHT22;38556;47.068;15.408;2023-04-15T00:11:49;8.10;99.90
1996;DHT22;38556;47.068;15.408;2023-04-15T00:14:16;8.10;99.90
1996;DHT22;38556;47.068;15.408;2023-04-15T00:16:45;8.10;99.90
1996;DHT22;38556;47.068;15.408;2023-04-15T00:19:13;8.10;99.90
1996;DHT22;38556;47.068;15.408;2023-04-15T00:21:40;8.10;99.90
1996;DHT22;38556;47.068;15.408;2023-04-15T00:24:07;8.10;99.90
1996;DHT22;38556;47.068;15.408;2023-04-15T00:26:34;8.00;99.90
1996;DHT22;38556;47.068;15.408;2023-04-15T00:29:02;7.90;99.90
1996;DHT22;38556;47.068;15.408;2023-04-15T00:31:30;7.90;99.90
1996;DHT22;38556;47.068;15.408;2023-04-15T00:33:59;7.90;99.90
1996;DHT22;38556;47.068;15.408;2023-04-15T00:36:27;7.90;99.90
1996;DHT22;38556;47.068;15.408;2023-04-15T00:38:54;7.90;99.90
1996;DHT22;38556;47.068;15.408;2023-04-15T00:41:21;7.80;99.90
1996;DHT22;38556;47.068;15.408;2023-04-15T00:43:49;7.60;99.90
1996;DHT22;38556;47.068;15.408;2023-04-15T00:46:18;7.60;99.90
1996;DHT22;38556;47.068;15.408;2023-04-15T00:48:46;7.50;99.90
1996;DHT22;38556;47.068;15.408;2023-04-15T00:51:15;7.60;99.90
1996;DHT22;38556;47.068;15.408;2023-04-15T00:53:42;7.60;99.90
1996;DHT22;38556;47.068;15.408;2023-04-15T00:56:09;7.70;99.90
1996;DHT22;38556;47.068;15.408;2023-04-15T00:58:37;7.80;99.90
1996;DHT22;38556;47.068;15.408;2023-04-15T01:01:04;7.80;99.90
1996;DHT22;38556;47.068;15.408;2023-04-15T01:03:32;7.90;99.90
1996;DHT22;38556;47.068;15.408;2023-04-15T01:05:59;8.00;99.90
1996;DHT22;38556;47.068;15.408;2023-04-15T01:08:28;8.00;99.90
1996;DHT22;38556;47.068;15.408;2023-04-15T01:10:57;7.80;99.90
1996;DHT22;38556;47.068;15.408;2023-04-15T01:13:29;7.80;99.90
1996;DHT22;38556;47.068;15.408;2023-04-15T01:15:57;7.90;99.90
1996;DHT22;38556;47.068;15.408;2023-04-15T01:18:25;7.80;99.90
1996;DHT22;38556;47.068;15.408;2023-04-15T01:20:52;7.70;99.90
1996;DHT22;38556;47.068;15.408;2023-04-15T01:23:20;7.30;99.90
1996;DHT22;38556;47.068;15.408;2023-04-15T01:25:50;7.10;99.90
1996;DHT22;38556;47.068;15.408;2023-04-15T01:28:18;7.20;99.90
1996;DHT22;38556;47.068;15.408;2023-04-15T01:30:46;7.20;99.90
1996;DHT22;38556;47.068;15.408;2023-04-15T01:33:13;7.10;99.90
1996;DHT22;38556;47.068;15.408;2023-04-15T01:35:41;7.10;99.90
1996;DHT22;38556;47.068;15.408;2023-04-15T01:38:09;6.90;99.90
1996;DHT22;38556;47.068;15.408;2023-04-15T01:40:37;6.90;99.90
1996;DHT22;38556;47.068;15.408;2023-04-15T01:43:06;7.00;99.90
1996;DHT22;38556;47.068;15.408;2023-04-15T01:45:34;7.00;99.90
1996;DHT22;38556;47.068;15.408;2023-04-15T01:48:01;7.00;99.90
1996;DHT22;38556;47.068;15.408;2023-04-15T01:50:28;7.00;99.90
1996;DHT22;38556;47.068;15.408;2023-04-15T01:52:56;7.00;99.90
1996;DHT22;38556;47.068;15.408;2023-04-15T01:55:23;7.00;99.90
1996;DHT22;38556;47.068;15.408;2023-04-15T01:57:50;7.00;99.90
1996;DHT22;38556;47.068;15.408;2023-04-15T02:00:19;6.90;99.90
1996;DHT22;38556;47.068;15.408;2023-04-15T02:02:47;6.90;99.90
1996;DHT22;38556;47.068;15.408;2023-04-15T02:05:14;7.10;99.90
1996;DHT22;38556;47.068;15.408;2023-04-15T02:07:41;7.00;99.90
1996;DHT22;38556;47.068;15.408;2023-04-15T02:10:09;6.80;99.90
1996;DHT22;38556;47.068;15.408;2023-04-15T02:12:38;6.90;99.90
1996;DHT22;38556;47.068;15.408;2023-04-15T02:15:07;6.70;99.90
1996;DHT22;38556;47.068;15.408;2023-04-15T02:17:36;6.80;99.90
1996;DHT22;38556;47.068;15.408;2023-04-15T02:20:04;7.00;99.90
1996;DHT22;38556;47.068;15.408;2023-04-15T02:22:33;6.90;99.90
1996;DHT22;38556;47.068;15.408;2023-04-15T02:25:00;7.00;99.90
1996;DHT22;38556;47.068;15.408;2023-04-15T02:27:28;6.90;99.90
1996;DHT22;38556;47.068;15.408;2023-04-15T02:29:55;6.90;99.90
1996;DHT22;38556;47.068;15.408;2023-04-15T02:32:23;6.90;99.90
1996;DHT22;38556;47.068;15.408;2023-04-15T02:34:51;7.10;99.90
1996;DHT22;38556;47.068;15.408;2023-04-15T02:37:19;7.10;99.90
1996;DHT22;38556;47.068;15.408;2023-04-15T02:39:46;7.00;99.90
1996;DHT22;38556;47.068;15.408;2023-04-15T02:42:13;7.10;99.90
1996;DHT22;38556;47.068;15.408;2023-04-15T02:44:41;7.10;99.90
1996;DHT22;38556;47.068;15.408;2023-04-15T02:47:09;7.10;99.90
1996;DHT22;38556;47.068;15.408;2023-04-15T02:49:37;7.20;99.90
1996;DHT22;38556;47.068;15.408;2023-04-15T02:52:06;7.20;99.90
1996;DHT22;38556;47.068;15.408;2023-04-15T02:54:34;6.90;99.90
1996;DHT22;38556;47.068;15.408;2023-04-15T02:57:02;6.80;99.90
1996;DHT22;38556;47.068;15.408;2023-04-15T02:59:31;6.90;99.90
1996;DHT22;38556;47.068;15.408;2023-04-15T03:01:59;6.90;99.90
1996;DHT22;38556;47.068;15.408;2023-04-15T03:04:26;6.90;99.90
1996;DHT22;38556;47.068;15.408;2023-04-15T03:06:55;7.00;99.90
1996;DHT22;38556;47.068;15.408;2023-04-15T03:09:23;7.10;99.90
1996;DHT22;38556;47.068;15.408;2023-04-15T03:11:51;7.10;99.90
1996;DHT22;38556;47.068;15.408;2023-04-15T03:14:19;6.80;99.90
1996;DHT22;38556;47.068;15.408;2023-04-15T03:16:46;6.90;99.90
1996;DHT22;38556;47.068;15.408;2023-04-15T03:19:15;7.00;99.90
1996;DHT22;38556;47.068;15.408;2023-04-15T03:21:42;7.10;99.90
1996;DHT22;38556;47.068;15.408;2023-04-15T03:24:10;7.10;99.90
1996;DHT22;38556;47.068;15.408;2023-04-15T03:26:38;7.10;99.90
1996;DHT22;38556;47.068;15.408;2023-04-15T03:29:06;7.20;99.90
1996;DHT22;38556;47.068;15.408;2023-04-15T03:31:33;7.30;99.90
1996;DHT22;38556;47.068;15.408;2023-04-15T03:34:01;7.40;99.90
1996;DHT22;38556;47.068;15.408;2023-04-15T03:36:28;7.40;99.90
1996;DHT22;38556;47.068;15.408;2023-04-15T03:41:23;7.30;99.90
1996;DHT22;38556;47.068;15.408;2023-04-15T03:43:53;7.30;99.90
1996;DHT22;38556;47.068;15.408;2023-04-15T03:46:20;7.10;99.90
1996;DHT22;38556;47.068;15.408;2023-04-15T03:48:47;7.10;99.90
1996;DHT22;38556;47.068;15.408;2023-04-15T03:51:14;7.20;99.90
1996;DHT22;38556;47.068;15.408;2023-04-15T03:53:41;7.20;99.90
1996;DHT22;38556;47.068;15.408;2023-04-15T03:56:08;7.30;99.90
1996;DHT22;38556;47.068;15.408;2023-04-15T03:58:36;7.30;99.90
1996;DHT22;38556;47.068;15.408;2023-04-15T04:01:05;7.40;99.90
1996;DHT22;38556;47.068;15.408;2023-04-15T04:03:32;7.20;99.90
1996;DHT22;38556;47.068;15.408;2023-04-15T04:05:59;7.00;99.90
1996;DHT22;38556;47.068;15.408;2023-04-15T04:08:26;7.00;99.90
1996;DHT22;38556;47.068;15.408;2023-04-15T04:10:53;6.90;99.90
1996;DHT22;38556;47.068;15.408;2023-04-15T04:13:21;6.80;99.90
1996;DHT22;38556;47.068;15.408;2023-04-15T04:15:48;6.90;99.90
1996;DHT22;38556;47.068;15.408;2023-04-15T04:18:17;7.00;99.90
1996;DHT22;38556;47.068;15.408;2023-04-15T04:20:44;7.10;99.90
1996;DHT22;38556;47.068;15.408;2023-04-15T04:23:12;7.10;99.90
1996;DHT22;38556;47.068;15.408;2023-04-15T04:25:39;7.20;99.90
1996;DHT22;38556;47.068;15.408;2023-04-15T04:28:07;7.20;99.90
1996;DHT22;38556;47.068;15.408;2023-04-15T04:30:34;7.20;99.90
1996;DHT22;38556;47.068;15.408;2023-04-15T04:33:01;7.10;99.90
1996;DHT22;38556;47.068;15.408;2023-04-15T04:35:30;7.10;99.90
1996;DHT22;38556;47.068;15.408;2023-04-15T04:38:00;6.90;99.90
1996;DHT22;38556;47.068;15.408;2023-04-15T04:40:27;6.90;99.90
1996;DHT22;38556;47.068;15.408;2023-04-15T04:42:54;6.90;99.90
1996;DHT22;38556;47.068;15.408;2023-04-15T04:45:22;7.10;99.90
1996;DHT22;38556;47.068;15.408;2023-04-15T04:47:49;7.20;99.90
1996;DHT22;38556;47.068;15.408;2023-04-15T04:50:16;7.30;99.90
1996;DHT22;38556;47.068;15.408;2023-04-15T04:52:45;7.30;99.90
1996;DHT22;38556;47.068;15.408;2023-04-15T04:55:12;7.30;99.90
1996;DHT22;38556;47.068;15.408;2023-04-15T04:57:39;7.10;99.90
1996;DHT22;38556;47.068;15.408;2023-04-15T05:00:07;7.10;99.90
1996;DHT22;38556;47.068;15.408;2023-04-15T05:02:35;7.00;99.90
1996;DHT22;38556;47.068;15.408;2023-04-15T05:05:03;7.20;99.90
1996;DHT22;38556;47.068;15.408;2023-04-15T05:07:30;7.10;99.90
1996;DHT22;38556;47.068;15.408;2023-04-15T05:09:59;6.80;99.90
1996;DHT22;38556;47.068;15.408;2023-04-15T05:12:26;7.00;99.90
1996;DHT22;38556;47.068;15.408;2023-04-15T05:14:53;7.10;99.90
1996;DHT22;38556;47.068;15.408;2023-04-15T05:19:49;7.20;99.90
1996;DHT22;38556;47.068;15.408;2023-04-15T05:24:43;7.20;99.90
1996;DHT22;38556;47.068;15.408;2023-04-15T05:27:13;6.90;99.90
1996;DHT22;38556;47.068;15.408;2023-04-15T05:29:40;7.00;99.90
1996;DHT22;38556;47.068;15.408;2023-04-15T05:32:08;6.90;99.90
1996;DHT22;38556;47.068;15.408;2023-04-15T05:34:35;6.80;99.90
1996;DHT22;38556;47.068;15.408;2023-04-15T05:37:02;6.90;99.90
1996;DHT22;38556;47.068;15.408;2023-04-15T05:39:29;7.00;99.90
1996;DHT22;38556;47.068;15.408;2023-04-15T05:41:57;7.00;99.90
1996;DHT22;38556;47.068;15.408;2023-04-15T05:44:26;7.00;99.90
1996;DHT22;38556;47.068;15.408;2023-04-15T05:46:53;7.20;99.90
1996;DHT22;38556;47.068;15.408;2023-04-15T05:49:20;7.20;99.90
1996;DHT22;38556;47.068;15.408;2023-04-15T05:51:48;7.00;99.90
1996;DHT22;38556;47.068;15.408;2023-04-15T05:54:15;7.00;99.90
1996;DHT22;38556;47.068;15.408;2023-04-15T05:56:44;7.00;99.90
1996;DHT22;38556;47.068;15.408;2023-04-15T05:59:11;6.90;99.90
1996;DHT22;38556;47.068;15.408;2023-04-15T06:01:40;6.90;99.90
1996;DHT22;38556;47.068;15.408;2023-04-15T06:04:07;7.10;99.90
1996;DHT22;38556;47.068;15.408;2023-04-15T06:06:34;7.20;99.90
1996;DHT22;38556;47.068;15.408;2023-04-15T06:09:02;7.20;99.90
1996;DHT22;38556;47.068;15.408;2023-04-15T06:11:29;7.20;99.90
1996;DHT22;38556;47.068;15.408;2023-04-15T06:13:57;7.20;99.90
1996;DHT22;38556;47.068;15.408;2023-04-15T06:16:24;7.10;99.90
1996;DHT22;38556;47.068;15.408;2023-04-15T06:18:53;7.30;99.90
1996;DHT22;38556;47.068;15.408;2023-04-15T06:21:20;7.20;99.90
1996;DHT22;38556;47.068;15.408;2023-04-15T06:23:48;7.20;99.90
1996;DHT22;38556;47.068;15.408;2023-04-15T06:26:15;7.20;99.90
1996;DHT22;38556;47.068;15.408;2023-04-15T06:28:42;7.20;99.90
1996;DHT22;38556;47.068;15.408;2023-04-15T06:31:09;7.20;99.90
1996;DHT22;38556;47.068;15.408;2023-04-15T06:33:37;7.20;99.90
1996;DHT22;38556;47.068;15.408;2023-04-15T06:36:06;7.20;99.90
1996;DHT22;38556;47.068;15.408;2023-04-15T06:41:01;7.50;99.90
1996;DHT22;38556;47.068;15.408;2023-04-15T06:43:28;7.50;99.90
1996;DHT22;38556;47.068;15.408;2023-04-15T06:45:55;7.40;99.90
1996;DHT22;38556;47.068;15.408;2023-04-15T06:50:51;7.40;99.90
1996;DHT22;38556;47.068;15.408;2023-04-15T06:53:20;7.40;99.90
1996;DHT22;38556;47.068;15.408;2023-04-15T06:55:48;7.40;99.90
1996;DHT22;38556;47.068;15.408;2023-04-15T07:00:43;7.40;99.90
1996;DHT22;38556;47.068;15.408;2023-04-15T07:03:11;7.40;99.90
1996;DHT22;38556;47.068;15.408;2023-04-15T07:05:38;7.30;99.90
1996;DHT22;38556;47.068;15.408;2023-04-15T07:08:06;7.30;99.90
1996;DHT22;38556;47.068;15.408;2023-04-15T07:10:35;7.20;99.90
1996;DHT22;38556;47.068;15.408;2023-04-15T07:13:04;7.20;99.90
1996;DHT22;38556;47.068;15.408;2023-04-15T07:15:34;7.20;99.90
1996;DHT22;38556;47.068;15.408;2023-04-15T07:18:01;7.30;99.90
1996;DHT22;38556;47.068;15.408;2023-04-15T07:20:29;7.50;99.90
1996;DHT22;38556;47.068;15.408;2023-04-15T07:22:56;7.70;99.90
1996;DHT22;38556;47.068;15.408;2023-04-15T07:25:23;7.70;99.90
1996;DHT22;38556;47.068;15.408;2023-04-15T07:27:53;7.80;99.90
1996;DHT22;38556;47.068;15.408;2023-04-15T07:30:20;7.90;99.90
1996;DHT22;38556;47.068;15.408;2023-04-15T07:32:48;7.90;99.90
1996;DHT22;38556;47.068;15.408;2023-04-15T07:35:16;8.10;99.90
1996;DHT22;38556;47.068;15.408;2023-04-15T07:37:47;8.00;99.90
1996;DHT22;38556;47.068;15.408;2023-04-15T07:40:14;8.10;99.90
1996;DHT22;38556;47.068;15.408;2023-04-15T07:45:11;8.30;99.90
1996;DHT22;38556;47.068;15.408;2023-04-15T07:47:38;8.40;99.90
1996;DHT22;38556;47.068;15.408;2023-04-15T07:50:09;8.30;99.90
1996;DHT22;38556;47.068;15.408;2023-04-15T07:52:36;8.30;99.90
1996;DHT22;38556;47.068;15.408;2023-04-15T07:55:06;8.40;99.90
1996;DHT22;38556;47.068;15.408;2023-04-15T07:57:34;8.50;99.90
1996;DHT22;38556;47.068;15.408;2023-04-15T08:00:03;8.50;99.90
1996;DHT22;38556;47.068;15.408;2023-04-15T08:02:34;8.50;99.90
1996;DHT22;38556;47.068;15.408;2023-04-15T08:05:02;8.50;99.90
1996;DHT22;38556;47.068;15.408;2023-04-15T08:07:29;8.50;99.90
1996;DHT22;38556;47.068;15.408;2023-04-15T08:09:57;8.60;99.90
1996;DHT22;38556;47.068;15.408;2023-04-15T08:12:24;8.60;99.90
1996;DHT22;38556;47.068;15.408;2023-04-15T08:14:51;8.70;99.90
1996;DHT22;38556;47.068;15.408;2023-04-15T08:17:18;8.70;99.90
1996;DHT22;38556;47.068;15.408;2023-04-15T08:19:47;8.80;99.90
1996;DHT22;38556;47.068;15.408;2023-04-15T08:22:14;8.90;99.90
1996;DHT22;38556;47.068;15.408;2023-04-15T08:24:42;8.90;99.90
1996;DHT22;38556;47.068;15.408;2023-04-15T08:27:09;8.90;99.90
1996;DHT22;38556;47.068;15.408;2023-04-15T08:29:37;9.00;99.90
1996;DHT22;38556;47.068;15.408;2023-04-15T08:32:05;9.00;99.90
1996;DHT22;38556;47.068;15.408;2023-04-15T08:34:33;9.10;99.90
1996;DHT22;38556;47.068;15.408;2023-04-15T08:37:02;9.00;99.90
1996;DHT22;38556;47.068;15.408;2023-04-15T08:39:29;9.00;99.90
1996;DHT22;38556;47.068;15.408;2023-04-15T08:42:00;9.10;99.90
1996;DHT22;38556;47.068;15.408;2023-04-15T08:47:00;9.30;99.90
1996;DHT22;38556;47.068;15.408;2023-04-15T08:49:28;9.30;99.90
1996;DHT22;38556;47.068;15.408;2023-04-15T08:51:58;9.50;99.90
1996;DHT22;38556;47.068;15.408;2023-04-15T08:54:27;9.50;99.90
1996;DHT22;38556;47.068;15.408;2023-04-15T08:56:56;9.50;99.90
1996;DHT22;38556;47.068;15.408;2023-04-15T08:59:24;9.60;99.90
1996;DHT22;38556;47.068;15.408;2023-04-15T09:01:51;9.60;99.90
1996;DHT22;38556;47.068;15.408;2023-04-15T09:04:21;9.50;99.90
1996;DHT22;38556;47.068;15.408;2023-04-15T09:06:48;9.50;99.90
1996;DHT22;38556;47.068;15.408;2023-04-15T09:09:15;9.60;99.90
1996;DHT22;38556;47.068;15.408;2023-04-15T09:11:44;9.60;99.90
1996;DHT22;38556;47.068;15.408;2023-04-15T09:14:11;9.60;99.90
1996;DHT22;38556;47.068;15.408;2023-04-15T09:16:57;9.60;99.90
1996;DHT22;38556;47.068;15.408;2023-04-15T09:19:26;9.70;99.90
1996;DHT22;38556;47.068;15.408;2023-04-15T09:21:54;9.70;99.90
1996;DHT22;38556;47.068;15.408;2023-04-15T09:24:22;9.80;99.90
1996;DHT22;38556;47.068;15.408;2023-04-15T09:26:53;9.80;99.90
1996;DHT22;38556;47.068;15.408;2023-04-15T09:29:23;9.80;99.90
1996;DHT22;38556;47.068;15.408;2023-04-15T09:31:51;9.80;99.90
1996;DHT22;38556;47.068;15.408;2023-04-15T09:34:19;9.80;99.90
1996;DHT22;38556;47.068;15.408;2023-04-15T09:36:56;9.90;99.90
1996;DHT22;38556;47.068;15.408;2023-04-15T09:39:24;9.80;99.90
1996;DHT22;38556;47.068;15.408;2023-04-15T09:42:04;9.70;99.90
1996;DHT22;38556;47.068;15.408;2023-04-15T09:44:33;9.50;99.90
1996;DHT22;38556;47.068;15.408;2023-04-15T09:47:00;9.70;99.90
1996;DHT22;38556;47.068;15.408;2023-04-15T09:49:28;9.80;99.90
1996;DHT22;38556;47.068;15.408;2023-04-15T09:51:59;9.70;99.90
1996;DHT22;38556;47.068;15.408;2023-04-15T09:54:36;9.60;99.90
1996;DHT22;38556;47.068;15.408;2023-04-15T09:57:06;9.60;99.90
1996;DHT22;38556;47.068;15.408;2023-04-15T09:59:34;9.70;99.90
1996;DHT22;38556;47.068;15.408;2023-04-15T10:02:03;9.70;99.90
1996;DHT22;38556;47.068;15.408;2023-04-15T10:04:34;9.90;99.90
1996;DHT22;38556;47.068;15.408;2023-04-15T10:07:04;9.80;99.90
1996;DHT22;38556;47.068;15.408;2023-04-15T10:09:31;9.90;99.90
1996;DHT22;38556;47.068;15.408;2023-04-15T10:12:00;10.00;99.90
1996;DHT22;38556;47.068;15.408;2023-04-15T10:14:32;10.00;99.90
1996;DHT22;38556;47.068;15.408;2023-04-15T10:17:01;10.20;99.90
1996;DHT22;38556;47.068;15.408;2023-04-15T10:19:30;10.20;99.90
1996;DHT22;38556;47.068;15.408;2023-04-15T10:21:59;10.20;99.90
1996;DHT22;38556;47.068;15.408;2023-04-15T10:24:26;10.10;99.90
1996;DHT22;38556;47.068;15.408;2023-04-15T10:26:55;10.20;99.90
1996;DHT22;38556;47.068;15.408;2023-04-15T10:29:23;10.20;99.90
1996;DHT22;38556;47.068;15.408;2023-04-15T10:31:53;10.40;99.90
1996;DHT22;38556;47.068;15.408;2023-04-15T10:34:23;10.50;99.90
1996;DHT22;38556;47.068;15.408;2023-04-15T10:36:51;10.60;99.90
1996;DHT22;38556;47.068;15.408;2023-04-15T10:39:45;10.60;99.90
1996;DHT22;38556;47.068;15.408;2023-04-15T10:42:14;10.50;99.90
1996;DHT22;38556;47.068;15.408;2023-04-15T10:44:43;10.50;99.90
1996;DHT22;38556;47.068;15.408;2023-04-15T10:47:14;10.70;99.90
1996;DHT22;38556;47.068;15.408;2023-04-15T10:49:45;10.70;99.90
1996;DHT22;38556;47.068;15.408;2023-04-15T10:52:14;10.70;99.90
1996;DHT22;38556;47.068;15.408;2023-04-15T10:54:43;10.70;99.90
1996;DHT22;38556;47.068;15.408;2023-04-15T10:57:14;10.50;99.90
1996;DHT22;38556;47.068;15.408;2023-04-15T11:00:08;10.50;99.90
1996;DHT22;38556;47.068;15.408;2023-04-15T11:02:44;10.70;99.90
1996;DHT22;38556;47.068;15.408;2023-04-15T11:05:14;10.80;99.90
1996;DHT22;38556;47.068;15.408;2023-04-15T11:07:53;10.50;99.90
1996;DHT22;38556;47.068;15.408;2023-04-15T11:10:52;10.50;99.90
1996;DHT22;38556;47.068;15.408;2023-04-15T11:13:28;10.70;99.90
1996;DHT22;38556;47.068;15.408;2023-04-15T11:15:59;10.70;99.90
1996;DHT22;38556;47.068;15.408;2023-04-15T11:18:30;10.40;99.90
1996;DHT22;38556;47.068;15.408;2023-04-15T11:21:00;10.50;99.90
1996;DHT22;38556;47.068;15.408;2023-04-15T11:23:30;10.50;99.90
1996;DHT22;38556;47.068;15.408;2023-04-15T11:25:59;10.50;99.90
1996;DHT22;38556;47.068;15.408;2023-04-15T11:28:28;10.70;99.90
1996;DHT22;38556;47.068;15.408;2023-04-15T11:30:57;10.80;99.90
1996;DHT22;38556;47.068;15.408;2023-04-15T11:33:24;10.60;99.90
1996;DHT22;38556;47.068;15.408;2023-04-15T11:35:53;10.80;99.90
1996;DHT22;38556;47.068;15.408;2023-04-15T11:38:20;10.90;99.90
1996;DHT22;38556;47.068;15.408;2023-04-15T11:40:49;10.90;99.90
1996;DHT22;38556;47.068;15.408;2023-04-15T11:43:18;10.80;99.90
1996;DHT22;38556;47.068;15.408;2023-04-15T11:45:48;10.90;99.90
1996;DHT22;38556;47.068;15.408;2023-04-15T11:48:16;10.80;99.90
1996;DHT22;38556;47.068;15.408;2023-04-15T11:50:44;10.90;99.90
1996;DHT22;38556;47.068;15.408;2023-04-15T11:53:13;10.90;99.90
1996;DHT22;38556;47.068;15.408;2023-04-15T11:55:41;10.90;99.90
1996;DHT22;38556;47.068;15.408;2023-04-15T11:58:11;11.00;99.90
1996;DHT22;38556;47.068;15.408;2023-04-15T12:00:39;11.00;99.90
1996;DHT22;38556;47.068;15.408;2023-04-15T12:03:22;11.00;99.90
1996;DHT22;38556;47.068;15.408;2023-04-15T12:06:10;11.10;99.90
1996;DHT22;38556;47.068;15.408;2023-04-15T12:09:00;11.00;99.90
1996;DHT22;38556;47.068;15.408;2023-04-15T12:14:05;11.20;99.90
1996;DHT22;38556;47.068;15.408;2023-04-15T12:16:33;11.30;99.90
1996;DHT22;38556;47.068;15.408;2023-04-15T12:19:04;11.10;99.90
1996;DHT22;38556;47.068;15.408;2023-04-15T12:21:36;11.00;99.90
1996;DHT22;38556;47.068;15.408;2023-04-15T12:24:07;11.00;99.90
1996;DHT22;38556;47.068;15.408;2023-04-15T12:26:36;10.90;99.90
1996;DHT22;38556;47.068;15.408;2023-04-15T12:29:06;10.90;99.90
1996;DHT22;38556;47.068;15.408;2023-04-15T12:31:34;10.90;99.90
1996;DHT22;38556;47.068;15.408;2023-04-15T12:34:06;11.10;99.90
1996;DHT22;38556;47.068;15.408;2023-04-15T12:36:33;11.40;99.90
1996;DHT22;38556;47.068;15.408;2023-04-15T12:39:02;11.40;99.90
1996;DHT22;38556;47.068;15.408;2023-04-15T12:41:32;11.40;99.90
1996;DHT22;38556;47.068;15.408;2023-04-15T12:44:00;11.40;99.90
1996;DHT22;38556;47.068;15.408;2023-04-15T12:46:27;11.60;99.90
1996;DHT22;38556;47.068;15.408;2023-04-15T12:48:56;11.70;99.90
1996;DHT22;38556;47.068;15.408;2023-04-15T12:51:23;11.80;99.90
1996;DHT22;38556;47.068;15.408;2023-04-15T12:53:52;11.90;99.90
1996;DHT22;38556;47.068;15.408;2023-04-15T12:56:20;11.90;99.90
1996;DHT22;38556;47.068;15.408;2023-04-15T12:58:48;11.80;99.90
1996;DHT22;38556;47.068;15.408;2023-04-15T13:01:16;11.80;99.90
1996;DHT22;38556;47.068;15.408;2023-04-15T13:03:44;11.70;99.90
1996;DHT22;38556;47.068;15.408;2023-04-15T13:06:13;11.70;99.90
1996;DHT22;38556;47.068;15.408;2023-04-15T13:08:40;11.60;99.90
1996;DHT22;38556;47.068;15.408;2023-04-15T13:11:08;11.60;99.90
1996;DHT22;38556;47.068;15.408;2023-04-15T13:13:36;11.70;99.90
1996;DHT22;38556;47.068;15.408;2023-04-15T13:16:05;11.60;99.90
1996;DHT22;38556;47.068;15.408;2023-04-15T13:21:01;11.70;99.90
1996;DHT22;38556;47.068;15.408;2023-04-15T13:23:28;11.80;99.90
1996;DHT22;38556;47.068;15.408;2023-04-15T13:25:56;11.60;99.90
1996;DHT22;38556;47.068;15.408;2023-04-15T13:28:23;11.60;99.90
1996;DHT22;38556;47.068;15.408;2023-04-15T13:30:51;11.60;99.90
1996;DHT22;38556;47.068;15.408;2023-04-15T13:33:19;11.80;99.90
1996;DHT22;38556;47.068;15.408;2023-04-15T13:35:47;11.50;99.90
1996;DHT22;38556;47.068;15.408;2023-04-15T13:38:14;11.40;99.90
1996;DHT22;38556;47.068;15.408;2023-04-15T13:40:42;11.40;99.90
1996;DHT22;38556;47.068;15.408;2023-04-15T13:43:09;10.50;99.90
1996;DHT22;38556;47.068;15.408;2023-04-15T13:45:37;10.30;99.90
1996;DHT22;38556;47.068;15.408;2023-04-15T13:48:05;9.20;99.90
1996;DHT22;38556;47.068;15.408;2023-04-15T13:50:34;9.10;99.90
1996;DHT22;38556;47.068;15.408;2023-04-15T13:53:01;9.40;99.90
1996;DHT22;38556;47.068;15.408;2023-04-15T13:55:28;9.60;99.90
1996;DHT22;38556;47.068;15.408;2023-04-15T13:57:56;9.90;99.90
1996;DHT22;38556;47.068;15.408;2023-04-15T14:00:23;9.90;99.90
1996;DHT22;38556;47.068;15.408;2023-04-15T14:02:51;9.90;99.90
1996;DHT22;38556;47.068;15.408;2023-04-15T14:05:18;10.00;99.90
1996;DHT22;38556;47.068;15.408;2023-04-15T14:07:47;10.20;99.90
1996;DHT22;38556;47.068;15.408;2023-04-15T14:10:14;9.90;99.90
1996;DHT22;38556;47.068;15.408;2023-04-15T14:12:41;9.90;99.90
1996;DHT22;38556;47.068;15.408;2023-04-15T14:15:09;10.00;99.90
1996;DHT22;38556;47.068;15.408;2023-04-15T14:17:36;9.80;99.90
1996;DHT22;38556;47.068;15.408;2023-04-15T14:20:07;9.70;99.90
1996;DHT22;38556;47.068;15.408;2023-04-15T14:22:34;9.60;99.90
1996;DHT22;38556;47.068;15.408;2023-04-15T14:25:04;9.60;99.90
1996;DHT22;38556;47.068;15.408;2023-04-15T14:27:31;9.50;99.90
1996;DHT22;38556;47.068;15.408;2023-04-15T14:29:59;9.50;99.90
1996;DHT22;38556;47.068;15.408;2023-04-15T14:32:26;9.50;99.90
1996;DHT22;38556;47.068;15.408;2023-04-15T14:34:53;9.70;99.90
1996;DHT22;38556;47.068;15.408;2023-04-15T14:37:20;9.70;99.90
1996;DHT22;38556;47.068;15.408;2023-04-15T14:39:48;9.80;99.90
1996;DHT22;38556;47.068;15.408;2023-04-15T14:42:17;9.90;99.90
1996;DHT22;38556;47.068;15.408;2023-04-15T14:44:45;9.90;99.90
1996;DHT22;38556;47.068;15.408;2023-04-15T14:49:40;9.70;99.90
1996;DHT22;38556;47.068;15.408;2023-04-15T14:52:07;9.70;99.90
1996;DHT22;38556;47.068;15.408;2023-04-15T14:54:34;9.60;99.90
1996;DHT22;38556;47.068;15.408;2023-04-15T14:57:02;9.60;99.90
1996;DHT22;38556;47.068;15.408;2023-04-15T14:59:30;9.60;99.90
1996;DHT22;38556;47.068;15.408;2023-04-15T15:01:58;9.60;99.90
1996;DHT22;38556;47.068;15.408;2023-04-15T15:04:25;9.60;99.90
1996;DHT22;38556;47.068;15.408;2023-04-15T15:06:52;9.50;99.90
1996;DHT22;38556;47.068;15.408;2023-04-15T15:09:21;9.80;99.90
1996;DHT22;38556;47.068;15.408;2023-04-15T15:11:49;9.80;99.90
1996;DHT22;38556;47.068;15.408;2023-04-15T15:14:17;10.00;99.90
1996;DHT22;38556;47.068;15.408;2023-04-15T15:16:45;10.00;99.90
1996;DHT22;38556;47.068;15.408;2023-04-15T15:19:14;10.10;99.90
1996;DHT22;38556;47.068;15.408;2023-04-15T15:21:41;10.00;99.90
1996;DHT22;38556;47.068;15.408;2023-04-15T15:24:09;10.10;99.90
1996;DHT22;38556;47.068;15.408;2023-04-15T15:26:36;10.10;99.90
1996;DHT22;38556;47.068;15.408;2023-04-15T15:29:04;10.00;99.90
1996;DHT22;38556;47.068;15.408;2023-04-15T15:31:33;9.90;99.90
1996;DHT22;38556;47.068;15.408;2023-04-15T15:34:03;10.00;99.90
1996;DHT22;38556;47.068;15.408;2023-04-15T15:36:30;9.90;99.90
1996;DHT22;38556;47.068;15.408;2023-04-15T15:38:58;9.80;99.90
1996;DHT22;38556;47.068;15.408;2023-04-15T15:41:26;9.90;99.90
1996;DHT22;38556;47.068;15.408;2023-04-15T15:43:53;9.90;99.90
1996;DHT22;38556;47.068;15.408;2023-04-15T15:46:21;9.80;99.90
1996;DHT22;38556;47.068;15.408;2023-04-15T15:48:48;9.80;99.90
1996;DHT22;38556;47.068;15.408;2023-04-15T15:51:18;9.80;99.90
1996;DHT22;38556;47.068;15.408;2023-04-15T15:53:45;9.80;99.90
1996;DHT22;38556;47.068;15.408;2023-04-15T15:56:13;9.90;99.90
1996;DHT22;38556;47.068;15.408;2023-04-15T15:58:41;9.80;99.90
1996;DHT22;38556;47.068;15.408;2023-04-15T16:01:10;9.80;99.90
1996;DHT22;38556;47.068;15.408;2023-04-15T16:03:37;9.70;99.90
1996;DHT22;38556;47.068;15.408;2023-04-15T16:06:04;9.60;99.90
1996;DHT22;38556;47.068;15.408;2023-04-15T16:08:33;9.60;99.90
1996;DHT22;38556;47.068;15.408;2023-04-15T16:11:01;9.60;99.90
1996;DHT22;38556;47.068;15.408;2023-04-15T16:13:28;9.90;99.90
1996;DHT22;38556;47.068;15.408;2023-04-15T16:15:55;10.00;99.90
1996;DHT22;38556;47.068;15.408;2023-04-15T16:18:23;10.10;99.90